Latest Weather Observations for kunanyi / Mount Wellington

IDT60901

Issued at 1:31 pm EST Wednesday 25 May 2016 (issued every 10 minutes, with the page automatically refreshed every 10 minutes)

About weather observations | Map of Hobart area stations | Latest observations for Hobart area | Other Formats
Station Details ID: 094087 Name: KUNANYI (MOUNT WELLINGTON PINNACLE) Lat: -42.90 Lon: 147.24 Height: 1260.47 m
Data from the previous 72 hours. | See also: Recent months at kunanyi / Mount Wellington
Date/Time
EST
Tmp

°C
App
Tmp
°C
Dew
Point
°C
Rel
Hum
%
Delta-T

°C
Wind Press
QNH
hPa
Press
MSL
hPa
Rain
since
9 am
mm
Dir
 
Spd
km/h
Gust
km/h
Spd
kts
Gust
kts
25/01:30pm 4.6 -3.9 3.1 90 0.7 W 37 48 20 26 - - 0.0
25/01:00pm 4.5 -3.6 3.0 90 0.7 W 35 46 19 25 - - 0.0
25/12:30pm 4.2 -5.1 2.7 90 0.7 W 41 54 22 29 - - 0.0
25/12:00pm 4.2 -4.8 2.7 90 0.7 W 39 50 21 27 - - 0.0
25/11:30am 4.1 -2.7 3.2 94 0.4 W 28 37 15 20 - - 0.0
25/11:00am 2.4 -4.6 2.0 97 0.2 W 28 37 15 20 - - 0.0
25/10:30am 2.1 -5.4 1.5 96 0.3 WSW 30 44 16 24 - - 0.0
25/10:00am 1.2 -6.5 -0.1 91 0.5 WSW 30 37 16 20 - - 0.0
25/09:30am 0.7 -5.5 -3.2 75 1.5 W 20 26 11 14 - - 0.0
25/09:00am 0.5 -6.3 -5.1 66 2.0 W 22 26 12 14 - - 1.4
25/08:30am 0.2 -6.3 -5.6 65 2.0 SW 20 24 11 13 - - 1.4
25/08:00am -0.3 -5.9 -6.1 65 1.9 SW 15 17 8 9 - - 1.4
25/07:30am 0.0 -6.0 -6.2 63 2.1 SW 17 19 9 10 - - 1.4
25/07:00am -0.4 -6.1 -7.4 59 2.3 SW 15 17 8 9 - - 1.4
25/06:30am -1.1 -7.5 -7.2 63 1.9 SW 19 19 10 10 - - 1.4
25/06:00am -1.1 -7.5 -7.0 64 1.9 SW 19 19 10 10 - - 1.4
25/05:30am -1.9 -7.2 -3.9 86 0.6 SW 15 17 8 9 - - 1.4
25/05:00am -1.8 -7.2 -4.9 79 1.0 SW 15 17 8 9 - - 1.4
25/04:30am -1.4 -7.8 -6.7 67 1.7 SW 19 19 10 10 - - 1.4
25/04:00am -2.2 -8.3 -3.9 88 0.5 SW 19 20 10 11 - - 1.4
25/03:30am -2.5 -8.7 -4.5 86 0.6 SW 19 20 10 11 - - 1.4
25/03:00am -2.6 -9.0 -5.2 82 0.8 SW 20 20 11 11 - - 1.4
25/02:30am -2.9 -9.3 -4.8 87 0.5 SW 20 22 11 12 - - 1.4
25/02:00am -3.0 -9.7 -4.4 90 0.3 SW 22 24 12 13 - - 1.4
25/01:30am -2.6 -8.6 -3.3 95 0.1 SW 19 20 10 11 - - 1.4
25/01:00am -2.5 -8.7 -3.2 95 0.1 SW 20 22 11 12 - - 1.4
25/12:30am -2.6 -9.2 -3.1 96 0.1 SW 22 22 12 12 - - 1.4
25/12:00am -2.6 -9.2 -3.1 96 0.1 SW 22 24 12 13 - - 1.4
 
Date/Time
EST
Tmp

°C
App
Tmp
°C
Dew
Point
°C
Rel
Hum
%
Delta-T

°C
Wind Press
QNH
hPa
Press
MSL
hPa
Rain
since
9 am
mm
Dir
 
Spd
km/h
Gust
km/h
Spd
kts
Gust
kts
24/11:30pm -2.5 -9.1 -3.0 96 0.1 SW 22 24 12 13 - - 1.4
24/11:00pm -2.6 -9.6 -3.1 96 0.1 SW 24 28 13 15 - - 1.4
24/10:30pm -2.5 -9.4 -3.0 96 0.1 SW 24 28 13 15 - - 1.4
24/10:00pm -2.5 -9.4 -3.0 96 0.1 SW 24 26 13 14 - - 1.4
24/09:30pm -2.4 -9.3 -2.9 96 0.1 SW 24 28 13 15 - - 1.4
24/09:00pm -2.5 -9.4 -3.0 96 0.1 SW 24 28 13 15 - - 1.4
24/08:30pm -2.2 -9.5 -2.7 96 0.1 SW 26 28 14 15 - - 1.4
24/08:00pm -2.0 -8.9 -2.6 96 0.1 SW 24 28 13 15 - - 1.4
24/07:30pm -2.2 -9.5 -2.9 95 0.1 SW 26 32 14 17 - - 1.4
24/07:00pm -2.4 -9.7 -3.1 95 0.1 SW 26 30 14 16 - - 1.4
24/06:30pm -2.6 -9.6 -3.3 95 0.1 SW 24 28 13 15 - - 1.4
24/06:00pm -2.3 -9.6 -2.8 96 0.1 SW 26 30 14 16 - - 1.4
24/05:30pm -1.6 -8.1 -2.2 96 0.1 SW 22 26 12 14 - - 1.4
24/05:00pm -1.8 -7.9 -2.4 96 0.1 SW 20 26 11 14 - - 1.4
24/04:30pm -1.4 -7.2 -1.8 97 0.1 SW 19 24 10 13 - - 1.4
24/04:00pm -1.1 -6.5 -1.5 97 0.1 SW 17 22 9 12 - - 1.4
24/03:30pm -0.9 -6.7 -1.3 97 0.1 SW 19 22 10 12 - - 1.4
24/03:00pm -0.8 -6.6 -1.2 97 0.1 SW 19 26 10 14 - - 1.4
24/02:30pm -1.1 -7.5 -1.5 97 0.1 SW 22 28 12 15 - - 1.4
24/02:00pm -0.9 -6.9 -1.3 97 0.1 SW 20 26 11 14 - - 1.4
24/01:30pm -0.8 -7.1 -1.2 97 0.1 SW 22 30 12 16 - - 1.4
24/01:00pm -0.9 -8.0 -1.3 97 0.1 SW 26 32 14 17 - - 1.4
24/12:30pm -1.1 -9.0 -1.5 97 0.1 SW 30 37 16 20 - - 1.2
24/12:00pm -1.1 -7.1 -1.5 97 0.1 SW 20 30 11 16 - - 1.2
24/11:30am -0.6 -6.3 -1.0 97 0.1 SW 19 26 10 14 - - 1.0
24/11:00am -0.8 -8.3 -1.2 97 0.1 SW 28 33 15 18 - - 0.6
24/10:30am -0.8 -7.5 -1.2 97 0.1 SW 24 35 13 19 - - 0.0
24/10:00am -0.8 -7.5 -1.2 97 0.1 SW 24 28 13 15 - - 0.0
24/09:30am -0.9 -8.0 -1.3 97 0.1 SW 26 33 14 18 - - 0.0
24/09:00am -0.9 -8.0 -1.3 97 0.1 SW 26 33 14 18 - - 4.0
24/08:30am -0.9 -7.6 -1.3 97 0.1 SW 24 32 13 17 - - 4.0
24/08:00am -1.0 -8.1 -1.4 97 0.1 SW 26 32 14 17 - - 4.0
24/07:30am -1.2 -8.7 -1.6 97 0.1 SW 28 35 15 19 - - 4.0
24/07:00am -1.2 -8.7 -1.6 97 0.1 SW 28 35 15 19 - - 4.0
24/06:30am -1.2 -9.1 -1.6 97 0.1 SW 30 35 16 19 - - 4.0
24/06:00am -1.2 -9.5 -1.6 97 0.1 SW 32 35 17 19 - - 4.0
24/05:30am -1.1 -9.4 -1.5 97 0.1 SW 32 37 17 20 - - 4.0
24/05:00am -0.9 -8.8 -1.3 97 0.1 SW 30 37 16 20 - - 4.0
24/04:30am -0.8 -8.3 -1.1 98 0.1 SW 28 37 15 20 - - 4.0
24/04:00am -0.7 -8.1 -1.0 98 0.1 SW 28 33 15 18 - - 4.0
24/03:30am -0.8 -9.0 -1.2 97 0.1 SW 32 39 17 21 - - 4.0
24/03:00am -0.8 -9.0 -1.2 97 0.1 SW 32 41 17 22 - - 4.0
24/02:30am -0.9 -9.7 -1.3 97 0.1 SW 35 44 19 24 - - 4.0
24/02:00am -0.9 -9.1 -1.3 97 0.1 SW 32 39 17 21 - - 4.0
24/01:30am -0.9 -9.7 -1.3 97 0.1 SW 35 43 19 23 - - 4.0
24/01:00am -1.0 -9.8 -1.4 97 0.1 SW 35 41 19 22 - - 4.0
24/12:30am -1.2 -10.8 -1.6 97 0.1 SW 39 44 21 24 - - 4.0
24/12:00am -1.2 -10.8 -1.6 97 0.1 SW 39 48 21 26 - - 4.0
 
Date/Time
EST
Tmp

°C
App
Tmp
°C
Dew
Point
°C
Rel
Hum
%
Delta-T

°C
Wind Press
QNH
hPa
Press
MSL
hPa
Rain
since
9 am
mm
Dir
 
Spd
km/h
Gust
km/h
Spd
kts
Gust
kts
23/11:30pm -1.4 -11.0 -1.8 97 0.1 SW 39 50 21 27 - - 4.0
23/11:00pm -1.5 -10.8 -1.9 97 0.1 SW 37 43 20 23 - - 4.0
23/10:30pm -1.8 -11.9 -2.2 97 0.1 SW 41 50 22 27 - - 4.0
23/10:00pm -1.7 -11.4 -2.1 97 0.1 SW 39 46 21 25 - - 4.0
23/09:30pm -1.5 -11.2 -1.9 97 0.1 SW 39 50 21 27 - - 4.0
23/09:00pm -1.8 -11.5 -2.2 97 0.1 SW 39 52 21 28 - - 4.0
23/08:30pm -1.6 -10.9 -2.0 97 0.1 SW 37 46 20 25 - - 4.0
23/08:00pm -1.3 -10.5 -1.7 97 0.1 SW 37 52 20 28 - - 4.0
23/07:30pm -1.3 -11.7 -1.6 98 0.0 SW 43 54 23 29 - - 4.0
23/07:00pm -0.8 -10.0 -1.1 98 0.1 SW 37 52 20 28 - - 4.0
23/06:30pm -0.7 -10.2 -1.0 98 0.1 SW 39 50 21 27 - - 4.0
23/06:00pm -0.5 -10.4 -0.8 98 0.1 WSW 41 52 22 28 - - 4.0
23/05:34pm -0.5 -10.8 -0.8 98 0.1 SW 43 61 23 33 - - 4.0
23/05:30pm -0.5 -11.3 -0.8 98 0.1 SW 46 61 25 33 - - 4.0
23/05:00pm -0.4 -13.3 -0.7 98 0.1 SW 57 70 31 38 - - 4.0
23/04:30pm -0.5 -14.9 -0.8 98 0.1 WSW 65 85 35 46 - - 4.0
23/04:16pm -0.2 -13.5 -0.5 98 0.1 WSW 59 78 32 42 - - 4.0
23/04:00pm 0.0 -13.2 -0.3 98 0.1 WSW 59 74 32 40 - - 4.0
23/03:30pm 0.0 -13.6 -0.3 98 0.1 WSW 61 74 33 40 - - 3.8
23/03:00pm 0.2 -13.4 -0.1 98 0.1 WSW 61 74 33 40 - - 3.8
23/02:33pm 0.3 -14.0 0.0 98 0.1 WSW 65 85 35 46 - - 3.8
23/02:30pm 0.4 -13.5 0.1 98 0.1 WSW 63 80 34 43 - - 3.8
23/02:17pm 0.7 -12.4 0.4 98 0.1 WSW 59 78 32 42 - - 3.8
23/02:00pm 0.8 -12.3 0.5 98 0.1 WSW 59 72 32 39 - - 3.8
23/01:30pm 0.9 -11.6 0.6 98 0.1 WSW 56 70 30 38 - - 3.6
23/01:23pm 1.1 -10.3 0.8 98 0.1 WSW 50 70 27 38 - - 3.6
23/01:00pm 0.9 -10.9 0.6 98 0.1 WSW 52 63 28 34 - - 3.4
23/12:30pm 1.4 -10.7 1.1 98 0.1 WSW 54 63 29 34 - - 3.0
23/12:00pm 0.8 -11.0 0.5 98 0.1 SW 52 61 28 33 - - 2.8
23/11:30am 0.8 -10.6 0.5 98 0.1 WSW 50 61 27 33 - - 2.4
23/11:00am 1.4 -8.2 1.1 98 0.1 SW 41 50 22 27 - - 2.0
23/10:30am 2.0 -6.0 1.7 98 0.1 SW 33 41 18 22 - - 1.8
23/10:00am 2.1 -7.0 1.8 98 0.1 WSW 39 46 21 25 - - 1.4
23/09:30am 2.0 -6.8 1.6 97 0.2 WSW 37 48 20 26 - - 0.8
23/09:00am 2.5 -7.3 2.1 97 0.2 WSW 43 57 23 31 - - 3.6
23/08:30am 2.6 -7.8 2.2 97 0.2 WSW 46 56 25 30 - - 3.4
23/08:00am 2.8 -5.1 2.2 96 0.3 WSW 33 43 18 23 - - 3.0
23/07:30am 2.7 -2.5 2.3 97 0.2 WSW 19 28 10 15 - - 3.0
23/07:00am 3.0 -1.0 2.6 97 0.2 SW 13 24 7 13 - - 3.0
23/06:30am 2.8 -3.0 2.5 98 0.1 W 22 33 12 18 - - 2.8
23/06:17am 2.9 -3.2 2.6 98 0.1 W 24 32 13 17 - - 2.6
23/06:00am 2.8 -7.0 2.5 98 0.1 WSW 43 50 23 27 - - 2.4
23/05:30am 3.2 -9.1 2.9 98 0.1 W 57 70 31 38 - - 1.4
23/05:00am 3.5 -7.8 3.2 98 0.1 WSW 52 63 28 34 - - 0.6
23/04:47am 3.6 -7.7 3.3 98 0.1 WSW 52 67 28 36 - - 0.4
23/04:30am 4.1 -4.3 3.7 97 0.2 WSW 37 56 20 30 - - 0.2
23/04:04am 6.7 -0.2 6.4 98 0.1 NNW 32 50 17 27 - - 0.2
23/04:00am 6.7 -0.8 6.4 98 0.1 NNW 35 50 19 27 - - 0.2
23/03:30am 6.7 -3.6 6.3 97 0.2 N 50 63 27 34 - - 0.0
23/03:03am 7.1 -3.3 5.9 92 0.6 N 50 69 27 37 - - 0.0
23/03:00am 7.0 -3.1 5.6 91 0.7 N 48 65 26 35 - - 0.0
23/02:30am 7.3 -2.9 5.1 86 1.1 N 48 63 26 34 - - 0.0
23/02:00am 7.8 -4.2 4.7 81 1.5 N 57 76 31 41 - - 0.0
23/01:48am 7.9 -4.1 4.7 80 1.5 N 57 80 31 43 - - 0.0
23/01:30am 7.8 -4.2 4.6 80 1.5 NNW 57 70 31 38 - - 0.0
23/01:00am 8.5 -4.1 3.8 72 2.2 NNW 59 82 32 44 - - 0.0
23/12:30am 8.6 -4.8 3.4 70 2.4 NNW 63 87 34 47 - - 0.0
23/12:00am 8.7 -3.9 3.5 70 2.4 NNW 59 83 32 45 - - 0.0
 
Date/Time
EST
Tmp

°C
App
Tmp
°C
Dew
Point
°C
Rel
Hum
%
Delta-T

°C
Wind Press
QNH
hPa
Press
MSL
hPa
Rain
since
9 am
mm
Dir
 
Spd
km/h
Gust
km/h
Spd
kts
Gust
kts
22/11:30pm 8.9 -5.2 3.9 71 2.4 NNW 67 89 36 48 - - 0.0
22/11:02pm 8.8 -4.9 4.0 72 2.3 NNW 65 87 35 47 - - 0.0
22/11:00pm 8.7 -5.3 4.1 73 2.2 NNW 67 82 36 44 - - 0.0
22/10:36pm 8.7 -5.0 3.9 72 2.3 NNW 65 83 35 45 - - 0.0
22/10:30pm 8.7 -5.0 3.9 72 2.3 NNW 65 80 35 43 - - 0.0
22/10:00pm 8.4 -4.9 3.8 73 2.2 NNW 63 83 34 45 - - 0.0
22/09:30pm 8.3 -6.2 3.6 72 2.2 NNW 69 89 37 48 - - 0.0
22/09:00pm 8.2 -4.0 2.9 69 2.4 NNW 56 76 30 41 - - 0.0
22/08:30pm 8.2 -2.1 2.7 68 2.5 NNW 46 65 25 35 - - 0.0
22/08:00pm 8.1 -3.7 2.8 69 2.4 NNW 54 82 29 44 - - 0.0
22/07:35pm 8.3 -3.2 2.5 67 2.6 NNW 52 98 28 53 - - 0.0
22/07:30pm 8.3 -2.4 2.3 66 2.7 NNW 48 72 26 39 - - 0.0
22/07:25pm 8.0 -3.2 2.0 66 2.7 NNW 50 78 27 42 - - 0.0
22/07:00pm 8.5 -4.0 1.9 63 3.0 NNW 57 78 31 42 - - 0.0
22/06:30pm 9.2 -3.9 0.6 55 3.8 NNW 59 85 32 46 - - 0.0
22/06:00pm 9.6 -4.4 0.0 51 4.2 NNW 63 87 34 47 - - 0.0
22/05:30pm 10.0 -4.3 0.1 50 4.3 NNW 65 95 35 51 - - 0.0
22/05:09pm 10.2 -4.1 0.3 50 4.3 NNW 65 83 35 45 - - 0.0
22/05:00pm 10.0 -4.3 0.3 51 4.2 NNW 65 80 35 43 - - 0.0
22/04:30pm 10.1 -4.2 0.2 50 4.3 NNW 65 80 35 43 - - 0.0
22/04:00pm 10.7 -2.9 -0.4 46 4.8 NNW 61 80 33 43 - - 0.0
22/03:30pm 10.2 -2.1 -0.3 48 4.5 NNW 54 67 29 36 - - 0.0
22/03:00pm 9.8 -2.1 -0.1 50 4.3 NNW 52 67 28 36 - - 0.0
22/02:34pm 10.1 -0.6 0.2 50 4.3 NNW 46 65 25 35 - - 0.0
22/02:30pm 9.9 -1.2 0.3 51 4.2 NNW 48 61 26 33 - - 0.0
22/02:00pm 10.2 -1.7 -0.3 48 4.5 N 52 65 28 35 - - 0.0

Latest Capital City Observations: Canberra | Sydney | Melbourne | Brisbane | Adelaide | Perth | Hobart | Darwin

Other Formats:

Comma delimited format used in spreadsheet applications
http://www.bom.gov.au/fwo/IDT60901/IDT60901.95979.axf

JavaScript Object Notation format (JSON) in row-major order
http://www.bom.gov.au/fwo/IDT60901/IDT60901.95979.json